Time;durP1;ratioP1;P1;durP2;ratioP2;P2;SDS_P1;SDS_P2;PMS_P1;PMS_P2;Temp;Humidity;BMP_temperature;BMP_pressure;BME280_temperature;BME280_humidity;BME280_pressure;Samples;Min_cycle;Max_cycle;Signal;HPM_P1;HPM_P2
2021/12/08 00:00:44;;;;;;;5.40;1.42;;;2.80;99.90;;;1.76;100.00;95843.22;5030201;28;20092;-70
2021/12/08 00:03:13;;;;;;;5.55;1.25;;;2.90;99.90;;;1.76;100.00;95845.78;5024176;28;20366;-71
2021/12/08 00:05:44;;;;;;;9.20;1.75;;;2.90;99.90;;;1.74;100.00;95856.06;5019073;28;20045;-72
2021/12/08 00:08:16;;;;;;;7.28;1.35;;;2.80;99.90;;;1.74;100.00;95857.78;5027753;28;20045;-71
2021/12/08 00:13:32;;;;;;;5.90;1.60;;;2.80;99.90;;;1.66;100.00;95848.63;5023417;28;20093;-71
2021/12/08 00:16:10;;;;;;;7.97;1.58;;;2.70;99.90;;;1.63;100.00;95858.97;5024965;28;20053;-72
2021/12/08 00:18:44;;;;;;;5.40;1.10;;;2.70;99.90;;;1.68;100.00;95856.25;5026793;28;20082;-71
2021/12/08 00:21:11;;;;;;;5.60;1.17;;;2.70;99.90;;;1.66;100.00;95855.47;5009438;28;20050;-71
2021/12/08 00:23:39;;;;;;;4.15;1.42;;;2.70;99.90;;;1.62;100.00;95853.91;5023106;28;20442;-72
2021/12/08 00:26:06;;;;;;;6.38;1.67;;;2.70;99.90;;;1.65;100.00;95854.66;5022396;28;20037;-70
2021/12/08 00:28:34;;;;;;;6.10;1.20;;;2.70;99.90;;;1.64;100.00;95863.22;5027542;28;20124;-71
2021/12/08 00:31:04;;;;;;;6.50;1.40;;;2.70;99.90;;;1.68;100.00;95859.66;5025083;28;20156;-71
2021/12/08 00:33:34;;;;;;;6.15;1.77;;;2.70;99.90;;;1.66;100.00;95858.88;5023648;28;20046;-71
2021/12/08 00:36:05;;;;;;;4.47;1.40;;;2.70;99.90;;;1.65;100.00;95858.94;5023568;28;20509;-72
2021/12/08 00:38:33;;;;;;;5.05;1.50;;;2.70;99.90;;;1.66;100.00;95840.97;5025463;28;20050;-71
2021/12/08 00:41:00;;;;;;;7.38;2.50;;;2.70;99.90;;;1.67;100.00;95873.34;5027988;28;20080;-71
2021/12/08 00:43:27;;;;;;;5.57;1.50;;;2.70;99.90;;;1.59;100.00;95859.16;5027952;28;20073;-71
2021/12/08 00:45:55;;;;;;;4.32;1.40;;;2.80;99.90;;;1.56;100.00;95851.59;5012844;28;20132;-72
2021/12/08 00:48:22;;;;;;;5.30;1.67;;;2.70;99.90;;;1.63;100.00;95855.59;5028412;28;20038;-71
2021/12/08 00:50:50;;;;;;;3.15;1.38;;;2.70;99.90;;;1.63;100.00;95874.31;5029037;28;20076;-71
2021/12/08 00:53:18;;;;;;;9.65;2.33;;;2.70;99.90;;;1.71;100.00;95865.56;5027696;28;20132;-71
2021/12/08 00:55:45;;;;;;;4.85;1.48;;;2.70;99.90;;;1.64;100.00;95863.22;5027985;28;20088;-71
2021/12/08 00:58:12;;;;;;;6.22;1.33;;;2.70;99.90;;;1.65;100.00;95876.84;5027643;28;20191;-71
2021/12/08 01:00:44;;;;;;;4.63;1.40;;;2.80;99.90;;;1.64;100.00;95867.47;5011258;28;20080;-71
2021/12/08 01:03:14;;;;;;;6.70;1.50;;;2.80;99.90;;;1.65;100.00;95864.88;5028668;28;20050;-71
2021/12/08 01:05:47;;;;;;;3.17;1.35;;;2.80;99.90;;;1.65;100.00;95864.06;5023120;28;20075;-71
2021/12/08 01:08:16;;;;;;;5.07;1.33;;;2.80;99.90;;;1.73;100.00;95858.66;5014216;28;20506;-71
2021/12/08 01:10:48;;;;;;;7.25;1.30;;;2.80;99.90;;;1.64;100.00;95870.03;5028268;28;20469;-71
2021/12/08 01:13:15;;;;;;;4.72;1.52;;;2.80;99.90;;;1.67;100.00;95870.78;5023914;28;20084;-71
2021/12/08 01:15:49;;;;;;;5.25;2.33;;;2.80;99.90;;;1.74;100.00;95850.13;5034344;28;20049;-69
2021/12/08 01:18:17;;;;;;;7.15;1.70;;;2.80;99.90;;;1.76;100.00;95861.13;5019929;28;20045;-71
2021/12/08 01:20:46;;;;;;;9.18;1.90;;;2.80;99.90;;;1.78;100.00;95854.22;5028648;28;20055;-69
2021/12/08 01:23:14;;;;;;;7.53;2.72;;;2.80;99.90;;;1.90;100.00;95863.19;5031981;28;20046;-71
2021/12/08 01:25:42;;;;;;;8.52;1.85;;;2.80;99.90;;;1.82;100.00;95855.78;5031196;28;20128;-70
2021/12/08 01:28:09;;;;;;;7.95;2.15;;;2.90;99.90;;;1.87;100.00;95856.44;5027287;28;20058;-70
2021/12/08 01:30:37;;;;;;;2.92;1.60;;;2.90;99.90;;;1.90;100.00;95853.78;5026828;28;20069;-71
2021/12/08 01:33:04;;;;;;;5.70;1.73;;;3.00;99.90;;;2.00;100.00;95856.84;5045263;28;20081;-71
2021/12/08 01:35:31;;;;;;;5.20;1.73;;;3.00;99.90;;;2.07;100.00;95860.84;5018355;28;20144;-70
2021/12/08 01:37:58;;;;;;;4.25;1.88;;;3.10;99.90;;;2.04;100.00;95853.28;5012960;28;20145;-70
2021/12/08 01:40:25;;;;;;;7.35;2.22;;;3.10;99.90;;;2.09;100.00;95849.66;5018286;28;20220;-70
2021/12/08 01:42:56;;;;;;;5.35;1.77;;;3.10;99.90;;;2.14;100.00;95846.09;5030492;28;20128;-70
2021/12/08 01:48:17;;;;;;;4.85;2.03;;;3.20;99.90;;;2.23;100.00;95841.47;5029807;28;20046;-70
2021/12/08 01:50:50;;;;;;;3.88;2.25;;;3.20;99.90;;;2.13;100.00;95862.34;5026649;28;20042;-70
2021/12/08 01:53:18;;;;;;;10.13;2.95;;;3.30;99.90;;;2.22;100.00;95854.34;5026781;28;20145;-70
2021/12/08 01:55:46;;;;;;;7.93;2.80;;;3.30;99.90;;;2.27;100.00;95839.63;5027716;28;20045;-71
2021/12/08 01:58:15;;;;;;;6.05;2.28;;;3.30;99.90;;;2.29;100.00;95837.84;5011947;28;20237;-70
2021/12/08 02:00:52;;;;;;;4.20;2.40;;;3.40;99.90;;;2.32;100.00;95836.91;5041394;28;20085;-71
2021/12/08 02:03:21;;;;;;;12.48;3.33;;;3.40;99.90;;;2.32;100.00;95842.84;5029665;28;20583;-70
2021/12/08 02:05:48;;;;;;;6.40;2.38;;;3.50;99.90;;;2.36;100.00;95834.16;5039965;28;20080;-71
2021/12/08 02:08:15;;;;;;;5.70;2.08;;;3.50;99.90;;;2.40;100.00;95845.97;5028940;28;20461;-71
2021/12/08 02:10:43;;;;;;;5.97;2.60;;;3.40;99.90;;;2.43;100.00;95845.84;5025799;28;20132;-71
2021/12/08 02:13:11;;;;;;;5.45;2.42;;;3.50;99.90;;;2.45;100.00;95844.06;5029204;28;20076;-70
2021/12/08 02:15:39;;;;;;;7.90;2.72;;;3.50;99.90;;;2.40;100.00;95851.09;5021515;28;20438;-71
2021/12/08 02:18:12;;;;;;;5.65;2.50;;;3.60;99.90;;;2.41;100.00;95851.91;5015861;28;20049;-70
2021/12/08 02:20:40;;;;;;;7.30;2.33;;;3.60;99.90;;;2.53;100.00;95842.91;5034536;28;20147;-71
2021/12/08 02:23:07;;;;;;;6.63;2.63;;;3.60;99.90;;;2.49;100.00;95832.81;5027191;28;20173;-71
2021/12/08 02:25:35;;;;;;;5.40;2.90;;;3.60;99.90;;;2.53;100.00;95825.81;5020924;28;20083;-70
2021/12/08 02:28:07;;;;;;;5.15;2.80;;;3.60;99.90;;;2.57;100.00;95831.66;5014753;28;20046;-69
2021/12/08 02:30:45;;;;;;;8.75;2.55;;;3.60;99.90;;;2.61;100.00;95831.50;5022140;28;20137;-71
2021/12/08 02:47:29;;;;;;;6.53;3.00;;;3.80;99.90;;;2.65;100.00;95847.59;5021334;28;20088;-69
2021/12/08 02:49:57;;;;;;;7.82;3.33;;;3.70;99.90;;;2.68;100.00;95835.47;5011812;28;20180;-71
2021/12/08 02:52:24;;;;;;;8.55;3.15;;;3.80;99.90;;;2.75;100.00;95832.69;5026082;28;20167;-71
2021/12/08 02:54:52;;;;;;;11.32;4.68;;;3.80;99.90;;;2.73;100.00;95836.13;5017381;28;20042;-71
2021/12/08 02:57:26;;;;;;;11.07;4.03;;;3.80;99.90;;;2.73;100.00;95835.28;5025776;28;20133;-71
2021/12/08 02:59:53;;;;;;;7.50;3.92;;;3.80;99.90;;;2.81;100.00;95838.41;5043873;28;20085;-70
2021/12/08 03:02:21;;;;;;;9.88;3.38;;;3.80;99.90;;;2.82;100.00;95836.66;5023391;28;20121;-71
2021/12/08 03:04:48;;;;;;;9.65;3.65;;;3.80;99.90;;;2.86;100.00;95848.47;5026136;28;20080;-71
2021/12/08 03:07:16;;;;;;;8.60;3.65;;;3.80;99.90;;;2.88;100.00;95847.50;5035186;28;20200;-70
2021/12/08 03:09:43;;;;;;;7.93;3.78;;;3.90;99.90;;;2.86;100.00;95846.72;5026666;28;20136;-69
2021/12/08 03:12:10;;;;;;;9.02;4.65;;;3.90;99.90;;;2.84;100.00;95853.63;5031935;28;20073;-71
2021/12/08 03:14:37;;;;;;;8.43;3.53;;;4.00;99.90;;;2.87;100.00;95858.66;5027366;28;20053;-70
2021/12/08 03:17:09;;;;;;;8.77;3.33;;;3.90;99.90;;;2.93;100.00;95863.53;5026328;28;20208;-71
2021/12/08 03:19:37;;;;;;;8.38;3.67;;;4.00;99.90;;;2.95;100.00;95860.91;5025986;28;20440;-69
2021/12/08 03:22:09;;;;;;;6.28;3.60;;;3.90;99.90;;;2.99;100.00;95844.53;5022700;28;20049;-70
2021/12/08 03:24:40;;;;;;;8.23;3.60;;;3.90;99.90;;;3.04;100.00;95842.59;5028443;28;20454;-70
2021/12/08 03:27:11;;;;;;;9.30;3.72;;;4.00;99.90;;;2.94;100.00;95848.97;5030111;28;20137;-70
2021/12/08 03:29:54;;;;;;;5.78;3.47;;;4.00;99.90;;;3.06;100.00;95835.69;5029086;28;20049;-71
2021/12/08 03:32:38;;;;;;;8.53;3.83;;;4.00;99.90;;;3.07;100.00;95851.88;5016311;28;20041;-71
2021/12/08 03:35:14;;;;;;;10.23;4.20;;;4.00;99.90;;;3.09;100.00;95848.38;5033651;28;20095;-71
2021/12/08 03:37:45;;;;;;;6.68;3.55;;;4.10;99.90;;;3.08;100.00;95845.84;5023761;28;20463;-70
2021/12/08 03:40:24;;;;;;;10.07;3.88;;;4.10;99.90;;;3.07;100.00;95842.47;5012893;28;20053;-71
2021/12/08 03:42:54;;;;;;;8.18;4.15;;;4.10;99.90;;;3.09;100.00;95840.66;5025081;28;20514;-71
2021/12/08 03:45:23;;;;;;;8.45;4.10;;;4.10;99.90;;;3.08;100.00;95826.19;5011133;28;20057;-70
2021/12/08 03:48:00;;;;;;;12.57;3.65;;;4.10;99.90;;;3.22;100.00;95824.81;5026310;28;20052;-70
2021/12/08 03:50:32;;;;;;;8.50;4.15;;;4.20;99.90;;;3.26;100.00;95816.91;5028368;28;20049;-71
2021/12/08 03:52:59;;;;;;;7.68;4.05;;;4.20;99.90;;;3.34;100.00;95809.72;5044613;28;20081;-71
2021/12/08 03:55:26;;;;;;;7.85;3.85;;;4.20;99.90;;;3.26;100.00;95808.38;5027860;28;20088;-71
2021/12/08 03:57:54;;;;;;;8.70;4.50;;;4.30;99.90;;;3.33;100.00;95820.88;5017986;28;20081;-71
2021/12/08 04:00:26;;;;;;;6.80;4.03;;;4.30;99.90;;;3.39;100.00;95832.59;5024912;28;20073;-70
2021/12/08 04:02:53;;;;;;;9.63;4.57;;;4.30;99.90;;;3.38;100.00;95830.94;5031357;28;20069;-70
2021/12/08 04:05:31;;;;;;;10.77;4.03;;;4.40;99.90;;;3.35;100.00;95831.91;5017900;28;20447;-69
2021/12/08 04:08:04;;;;;;;7.78;4.28;;;4.40;99.90;;;3.47;100.00;95838.25;5022495;28;20478;-71
2021/12/08 04:10:31;;;;;;;7.43;3.47;;;4.50;99.90;;;3.55;100.00;95832.78;5011287;28;20124;-70
2021/12/08 04:12:59;;;;;;;7.82;3.35;;;4.50;99.90;;;3.61;100.00;95837.66;5019202;28;20129;-70
2021/12/08 04:15:26;;;;;;;6.60;3.20;;;4.60;99.90;;;3.66;100.00;95842.59;5022398;28;20046;-70
2021/12/08 04:17:55;;;;;;;9.77;3.70;;;4.60;99.90;;;3.70;100.00;95837.28;5033261;28;20206;-71
2021/12/08 04:20:32;;;;;;;9.73;3.45;;;4.60;99.90;;;3.74;100.00;95855.91;5036315;28;20506;-71
2021/12/08 04:23:02;;;;;;;10.45;3.17;;;4.70;99.90;;;3.72;100.00;95857.75;5032540;28;20140;-71
2021/12/08 04:25:35;;;;;;;8.93;2.90;;;4.80;99.90;;;3.78;100.00;95842.88;5027230;28;20539;-70
2021/12/08 04:28:11;;;;;;;11.32;3.35;;;4.80;99.90;;;3.64;100.00;95839.25;5035137;28;20088;-71
2021/12/08 04:30:51;;;;;;;6.47;2.60;;;4.80;99.90;;;3.81;100.00;95849.63;5029890;28;20077;-71
2021/12/08 04:33:19;;;;;;;9.23;2.80;;;4.80;99.90;;;3.81;100.00;95847.06;5021218;28;20590;-71
2021/12/08 04:35:51;;;;;;;7.28;3.17;;;4.80;99.90;;;3.76;100.00;95844.72;5034170;28;20112;-71
2021/12/08 04:38:30;;;;;;;6.57;2.10;;;4.90;99.90;;;3.81;100.00;95846.22;5041454;28;20053;-71
2021/12/08 04:41:04;;;;;;;7.65;2.47;;;4.80;99.90;;;3.86;100.00;95846.88;5017151;28;20050;-71
2021/12/08 04:43:47;;;;;;;10.90;2.75;;;4.90;99.90;;;3.87;100.00;95841.66;5022133;28;20447;-70
2021/12/08 04:46:42;;;;;;;5.22;1.75;;;4.90;99.90;;;3.97;100.00;95850.63;5043793;28;20087;-71
2021/12/08 04:52:19;;;;;;;6.40;1.30;;;5.00;99.90;;;3.98;100.00;95849.72;5036090;28;20069;-71
2021/12/08 05:06:38;;;;;;;3.95;1.13;;;5.00;99.90;;;4.06;100.00;95854.53;5014104;28;20053;-71
2021/12/08 05:09:21;;;;;;;10.60;1.40;;;5.10;99.90;;;4.11;100.00;95862.03;5024717;28;20089;-71
2021/12/08 05:12:16;;;;;;;5.55;1.55;;;5.20;99.90;;;4.13;100.00;95855.09;5017066;28;20525;-71
2021/12/08 05:14:57;;;;;;;4.95;1.50;;;5.10;99.90;;;4.11;100.00;95864.59;5012887;28;20133;-71
2021/12/08 05:17:51;;;;;;;5.03;1.13;;;5.10;99.90;;;4.06;100.00;95887.06;5027653;28;20074;-71
2021/12/08 05:20:26;;;;;;;5.25;1.30;;;5.20;99.90;;;4.04;100.00;95878.59;5036657;28;20049;-70
2021/12/08 05:23:07;;;;;;;5.93;1.30;;;5.30;99.90;;;4.05;100.00;95878.53;5019271;28;20203;-69
2021/12/08 05:25:37;;;;;;;12.07;1.90;;;5.30;99.90;;;4.09;100.00;95874.09;5022284;28;20115;-70
2021/12/08 05:28:17;;;;;;;8.35;1.77;;;5.20;99.90;;;4.10;100.00;95871.44;5025442;28;20128;-70
2021/12/08 05:30:51;;;;;;;6.68;1.60;;;5.20;99.90;;;4.11;100.00;95856.91;5031827;28;20073;-72
2021/12/08 05:33:19;;;;;;;8.57;2.13;;;5.20;99.90;;;4.19;100.00;95858.19;5022541;28;20133;-70
2021/12/08 05:35:47;;;;;;;8.82;2.45;;;5.20;99.90;;;4.14;100.00;95869.59;5039503;28;20139;-70
2021/12/08 05:38:17;;;;;;;11.27;2.67;;;5.10;99.90;;;4.08;100.00;95873.28;5025677;28;20053;-71
2021/12/08 05:41:13;;;;;;;8.27;2.72;;;5.10;99.90;;;4.13;100.00;95866.19;5029758;28;20128;-70
2021/12/08 05:43:42;;;;;;;8.98;3.47;;;5.10;99.90;;;4.06;100.00;95872.50;5028848;28;20579;-70
2021/12/08 05:46:12;;;;;;;9.77;2.70;;;5.10;99.90;;;3.99;100.00;95871.09;5027701;28;20045;-71
2021/12/08 05:48:40;;;;;;;8.68;1.33;;;5.10;99.90;;;4.05;100.00;95881.09;5032589;28;20071;-70
2021/12/08 05:51:23;;;;;;;8.13;1.45;;;5.10;99.90;;;4.11;100.00;95887.72;5042154;28;20132;-71
2021/12/08 05:53:56;;;;;;;3.67;1.20;;;5.10;99.90;;;4.15;100.00;95887.50;5027079;28;20085;-71
2021/12/08 05:56:23;;;;;;;5.07;1.10;;;5.10;99.90;;;4.08;100.00;95886.13;5030167;28;20053;-70
2021/12/08 05:58:54;;;;;;;5.15;1.20;;;5.00;99.90;;;4.00;100.00;95890.72;5025858;28;20159;-70
2021/12/08 06:01:43;;;;;;;9.65;0.90;;;5.00;99.90;;;4.02;100.00;95880.41;5027508;28;20057;-70
2021/12/08 06:04:11;;;;;;;5.90;1.20;;;5.00;99.90;;;3.99;100.00;95873.66;5018838;28;20510;-71
2021/12/08 06:06:40;;;;;;;6.75;1.00;;;5.00;99.90;;;4.00;100.00;95875.34;5019851;28;20041;-71
2021/12/08 06:09:11;;;;;;;7.03;1.20;;;5.00;99.90;;;4.06;100.00;95866.50;5023229;28;20485;-69
2021/12/08 06:11:39;;;;;;;2.95;1.17;;;5.00;99.90;;;4.06;100.00;95880.22;5026021;28;20153;-71
2021/12/08 06:14:07;;;;;;;6.72;1.45;;;5.00;99.90;;;4.12;100.00;95876.53;5025047;28;20088;-70
2021/12/08 06:16:37;;;;;;;8.95;1.30;;;5.10;99.90;;;4.08;100.00;95872.41;5023245;28;20147;-71
2021/12/08 06:19:08;;;;;;;6.50;1.13;;;5.10;99.90;;;4.15;100.00;95851.56;5029301;28;20050;-70
2021/12/08 06:21:36;;;;;;;8.98;1.30;;;5.10;99.90;;;4.18;100.00;95853.97;5022644;28;20498;-70
2021/12/08 06:24:08;;;;;;;8.95;1.20;;;5.00;99.90;;;4.07;100.00;95853.63;5039605;28;20490;-71
2021/12/08 06:26:37;;;;;;;6.53;1.40;;;5.00;99.90;;;4.18;100.00;95855.72;5022103;28;20080;-71
2021/12/08 06:29:08;;;;;;;7.30;1.27;;;5.00;99.90;;;4.14;100.00;95861.88;5035666;28;20065;-70
2021/12/08 06:31:37;;;;;;;7.35;1.52;;;5.00;99.90;;;4.15;100.00;95889.22;5027779;28;20068;-70
2021/12/08 06:34:06;;;;;;;10.10;2.05;;;5.10;99.90;;;4.14;100.00;95890.13;5028695;28;20076;-70
2021/12/08 06:37:10;;;;;;;5.95;1.42;;;5.10;99.90;;;4.14;100.00;95887.56;5012727;28;20069;-71
2021/12/08 06:39:48;;;;;;;6.00;1.50;;;5.10;99.90;;;4.11;100.00;95872.31;5022716;28;20089;-70
2021/12/08 06:42:21;;;;;;;6.55;1.38;;;5.10;99.90;;;4.11;100.00;95865.44;5021325;28;20081;-71
2021/12/08 06:44:54;;;;;;;10.30;1.63;;;5.10;99.90;;;4.08;100.00;95867.28;5026722;28;20177;-70
2021/12/08 06:47:27;;;;;;;6.75;1.13;;;5.10;99.90;;;4.14;100.00;95887.56;5027938;28;20513;-70
2021/12/08 06:49:59;;;;;;;7.05;1.63;;;5.10;99.90;;;4.20;100.00;95882.16;5024272;28;20121;-70
2021/12/08 06:52:37;;;;;;;14.02;1.85;;;5.10;99.90;;;4.15;100.00;95872.09;5029901;28;20103;-71
2021/12/08 06:55:20;;;;;;;12.95;1.40;;;5.10;99.90;;;4.07;100.00;95881.84;5022965;28;20105;-70
2021/12/08 06:57:55;;;;;;;7.47;1.57;;;5.00;99.90;;;4.13;100.00;95898.75;5025968;28;20073;-71
2021/12/08 07:00:49;;;;;;;5.80;1.40;;;5.00;99.90;;;4.07;100.00;95891.31;5018906;28;20136;-70
2021/12/08 07:06:29;;;;;;;8.82;1.40;;;5.00;99.90;;;3.96;100.00;95878.94;5023526;28;19961;-70
2021/12/08 07:08:59;;;;;;;7.25;1.40;;;5.00;99.90;;;4.01;100.00;95889.81;5027566;28;20092;-70
2021/12/08 07:11:27;;;;;;;6.55;1.38;;;5.00;99.90;;;4.04;100.00;95892.28;5027387;28;20126;-70
2021/12/08 07:13:56;;;;;;;10.75;2.17;;;5.00;99.90;;;3.97;100.00;95893.44;5017579;28;20049;-71
2021/12/08 07:16:37;;;;;;;12.27;2.58;;;5.00;99.90;;;4.02;100.00;95885.53;5025375;28;20103;-71
2021/12/08 07:19:32;;;;;;;7.93;1.38;;;5.10;99.90;;;4.13;100.00;95870.50;5028245;28;20141;-69
2021/12/08 07:22:06;;;;;;;8.15;1.63;;;5.10;99.90;;;4.12;100.00;95882.47;5033238;28;20704;-70
2021/12/08 07:24:39;;;;;;;5.93;2.08;;;5.10;99.90;;;4.15;100.00;95899.47;5036945;28;20124;-70
2021/12/08 07:27:11;;;;;;;;;;;5.10;99.90;;;4.14;100.00;95913.25;5043369;28;20073;-70
2021/12/08 07:29:41;;;;;;;9.65;2.33;;;5.10;99.90;;;4.06;100.00;95923.84;5040026;28;19921;-70
2021/12/08 07:32:23;;;;;;;12.38;1.60;;;5.10;99.90;;;4.15;100.00;95900.34;4998356;28;20073;-70
2021/12/08 07:34:52;;;;;;;11.15;1.40;;;5.10;99.90;;;4.12;100.00;95890.19;5020830;28;20172;-70
2021/12/08 07:37:26;;;;;;;8.80;1.33;;;5.10;99.90;;;4.19;100.00;95891.56;5015475;28;20116;-69
2021/12/08 07:40:14;;;;;;;9.32;2.95;;;5.10;99.90;;;4.15;100.00;95871.25;5023307;28;20077;-71
2021/12/08 07:42:59;;;;;;;11.05;1.75;;;5.10;99.90;;;4.11;100.00;95859.47;5018492;28;20532;-70
2021/12/08 07:45:36;;;;;;;10.38;1.60;;;5.20;99.90;;;4.25;100.00;95862.22;5019056;28;21390;-70
2021/12/08 07:48:08;;;;;;;9.43;1.60;;;5.20;99.90;;;4.16;100.00;95868.63;5014823;28;20069;-71
2021/12/08 07:50:50;;;;;;;5.22;1.48;;;5.20;99.90;;;4.18;100.00;95878.81;5015036;28;20087;-70
2021/12/08 07:53:21;;;;;;;5.57;1.40;;;5.30;99.90;;;4.25;100.00;95895.63;5029239;28;20100;-69
2021/12/08 07:55:56;;;;;;;8.73;1.85;;;5.20;99.90;;;4.29;100.00;95891.16;5028950;28;20069;-69
2021/12/08 07:58:23;;;;;;;6.68;1.50;;;5.20;99.90;;;4.21;100.00;95894.09;5021475;28;20049;-71
2021/12/08 08:00:58;;;;;;;10.55;3.40;;;5.20;99.90;;;4.28;100.00;95899.78;5022961;28;20108;-70
2021/12/08 08:03:30;;;;;;;16.23;6.68;;;5.20;99.90;;;4.28;100.00;95897.22;5021316;28;20133;-71
2021/12/08 08:06:03;;;;;;;13.15;2.30;;;5.20;99.90;;;4.33;100.00;95887.56;5019853;28;20442;-70
2021/12/08 08:08:32;;;;;;;7.85;1.48;;;5.20;99.90;;;4.26;100.00;95899.00;5017401;28;20077;-70
2021/12/08 08:11:06;;;;;;;8.82;2.10;;;5.30;99.90;;;4.30;100.00;95906.53;5015020;28;20074;-69
2021/12/08 08:13:34;;;;;;;11.25;1.40;;;5.30;99.90;;;4.25;100.00;95920.47;5027955;28;20472;-70
2021/12/08 08:16:10;;;;;;;9.85;1.77;;;5.30;99.90;;;4.24;100.00;95913.66;5020838;28;20050;-70
2021/12/08 08:18:45;;;;;;;7.05;1.65;;;5.30;99.90;;;4.21;100.00;95917.19;5029210;28;20057;-69
2021/12/08 08:21:19;;;;;;;9.57;1.70;;;5.40;99.90;;;4.25;100.00;95912.78;5021110;28;20041;-70
2021/12/08 08:23:47;;;;;;;5.97;2.03;;;5.40;99.90;;;4.33;100.00;95931.22;5020880;28;20072;-70
2021/12/08 08:26:17;;;;;;;5.50;1.65;;;5.40;99.90;;;4.32;100.00;95935.53;5029220;28;20474;-70
2021/12/08 08:28:48;;;;;;;9.88;2.63;;;5.30;99.90;;;4.30;100.00;95941.66;5021988;28;20489;-70
2021/12/08 08:31:33;;;;;;;8.43;2.22;;;5.30;99.90;;;4.34;100.00;95938.88;5029546;28;20083;-70
2021/12/08 08:34:03;;;;;;;16.98;3.55;;;5.30;99.90;;;4.27;100.00;95936.66;5026717;28;20168;-69
2021/12/08 08:36:36;;;;;;;9.98;2.53;;;5.40;99.90;;;4.33;100.00;95941.50;5030522;28;20049;-70
2021/12/08 08:39:16;;;;;;;9.52;2.20;;;5.40;99.90;;;4.40;100.00;95937.75;5018678;28;20050;-71
2021/12/08 08:41:52;;;;;;;12.23;2.60;;;5.40;99.90;;;4.30;100.00;95939.09;5012993;28;20510;-70
2021/12/08 08:44:47;;;;;;;9.60;2.28;;;5.40;99.90;;;4.42;100.00;95937.69;5036578;28;20132;-70
2021/12/08 08:47:27;;;;;;;8.30;2.40;;;5.40;99.90;;;4.52;100.00;95926.94;5039785;28;20095;-70
2021/12/08 08:49:58;;;;;;;6.40;2.75;;;5.40;99.90;;;4.36;100.00;95918.28;5030171;28;20156;-70
2021/12/08 08:52:32;;;;;;;9.25;3.15;;;5.40;99.90;;;4.29;100.00;95920.28;5024538;28;20129;-70
2021/12/08 08:55:06;;;;;;;12.93;4.53;;;5.40;99.90;;;4.31;100.00;95915.06;5025243;28;20542;-71
2021/12/08 08:57:37;;;;;;;10.73;2.35;;;5.40;99.90;;;4.29;100.00;95925.41;5018877;28;20084;-70
2021/12/08 09:00:16;;;;;;;7.80;1.88;;;5.40;99.90;;;4.30;100.00;95926.25;5021752;28;20080;-70
2021/12/08 09:02:47;;;;;;;9.90;2.47;;;5.30;99.90;;;4.09;100.00;95944.25;5026568;28;20140;-69
2021/12/08 09:05:20;;;;;;;12.05;1.90;;;5.30;99.90;;;4.06;100.00;95962.38;5027045;28;20081;-70
2021/12/08 09:08:12;;;;;;;7.55;1.77;;;5.30;99.90;;;4.00;100.00;95942.06;5026325;28;20616;-71
2021/12/08 09:11:00;;;;;;;6.72;1.35;;;5.20;99.90;;;3.84;100.00;95952.16;5025805;28;20391;-71
2021/12/08 09:13:35;;;;;;;6.38;1.27;;;5.00;99.90;;;3.80;100.00;95942.91;5021385;28;20457;-70
2021/12/08 09:16:10;;;;;;;8.02;1.70;;;5.00;99.90;;;3.81;100.00;95944.59;5041150;28;20095;-71
2021/12/08 09:19:10;;;;;;;11.10;1.73;;;4.90;99.90;;;3.75;100.00;95961.06;5025637;28;20057;-70
2021/12/08 09:21:55;;;;;;;8.05;1.10;;;4.90;99.90;;;3.82;100.00;95961.66;5027759;28;20081;-70
2021/12/08 09:25:12;;;;;;;9.85;1.63;;;4.80;99.90;;;3.81;100.00;95972.84;5027414;28;20052;-71
2021/12/08 09:27:52;;;;;;;10.13;1.95;;;4.80;99.90;;;3.87;100.00;95976.84;5021473;28;20042;-70
2021/12/08 09:30:34;;;;;;;9.07;1.50;;;4.80;99.90;;;3.86;100.00;95982.91;5022778;28;20053;-70
2021/12/08 09:33:11;;;;;;;11.68;1.58;;;4.80;99.90;;;3.75;100.00;95989.31;5026664;28;20084;-70
2021/12/08 09:35:49;;;;;;;12.85;2.13;;;4.80;99.90;;;3.81;100.00;95992.50;5011765;28;20053;-70
2021/12/08 09:38:34;;;;;;;13.50;3.35;;;4.80;99.90;;;3.89;100.00;95983.59;5019640;28;20057;-70
2021/12/08 09:41:09;;;;;;;4.82;1.30;;;4.90;99.90;;;3.94;100.00;95991.94;5013619;28;20421;-70
2021/12/08 09:43:52;;;;;;;12.25;3.83;;;4.90;99.90;;;3.86;100.00;95986.31;5027758;28;20454;-70
2021/12/08 09:46:28;;;;;;;8.07;1.67;;;5.00;99.90;;;3.90;100.00;95994.69;5041602;28;21400;-70
2021/12/08 09:49:01;;;;;;;15.00;2.70;;;5.00;99.90;;;3.99;100.00;95991.75;5025768;28;20114;-70
2021/12/08 09:51:30;;;;;;;11.60;2.17;;;5.00;99.90;;;4.05;100.00;95994.06;5025927;28;20049;-70
2021/12/08 09:53:58;;;;;;;13.38;2.17;;;5.00;99.90;;;3.88;100.00;96004.22;5022682;28;20046;-69
2021/12/08 09:56:26;;;;;;;12.45;1.90;;;5.10;99.90;;;3.95;100.00;95995.34;5020603;28;20055;-69
2021/12/08 09:58:55;;;;;;;10.70;2.00;;;5.10;99.90;;;3.97;100.00;95996.97;5020721;28;20041;-70
2021/12/08 10:01:24;;;;;;;14.15;2.85;;;5.20;99.90;;;3.98;100.00;95997.78;5028032;28;20052;-70
2021/12/08 10:03:53;;;;;;;6.97;1.30;;;5.20;99.90;;;4.07;100.00;95994.81;5024610;28;20048;-71
2021/12/08 10:06:23;;;;;;;14.32;2.25;;;5.20;99.90;;;3.94;100.00;95986.78;5024178;28;20137;-71
2021/12/08 10:08:57;;;;;;;10.60;1.73;;;5.20;99.90;;;4.05;100.00;95977.81;5026219;28;20049;-69
2021/12/08 10:11:26;;;;;;;14.40;2.20;;;5.20;99.90;;;4.07;100.00;95968.31;5011870;28;20085;-70
2021/12/08 10:13:54;;;;;;;8.77;1.35;;;5.30;99.90;;;4.22;100.00;95966.81;5022541;28;20065;-70
2021/12/08 10:16:22;;;;;;;11.20;1.77;;;5.30;99.90;;;4.25;100.00;95969.28;5028823;28;20081;-71
2021/12/08 10:18:50;;;;;;;9.63;2.35;;;5.30;99.90;;;4.28;100.00;95966.56;5026601;28;20045;-70
2021/12/08 10:21:19;;;;;;;7.53;2.00;;;5.40;99.90;;;4.40;100.00;95961.75;5042489;28;20103;-71
2021/12/08 10:23:48;;;;;;;10.57;1.95;;;5.30;99.90;;;4.40;100.00;95963.44;5025636;28;20156;-70
2021/12/08 10:26:25;;;;;;;10.60;1.60;;;5.40;99.90;;;4.25;100.00;95966.72;5021173;28;20092;-70
2021/12/08 10:28:59;;;;;;;13.30;2.25;;;5.40;99.90;;;4.38;100.00;95960.13;5015040;28;20069;-69
2021/12/08 10:31:32;;;;;;;17.58;2.75;;;5.40;99.90;;;4.13;100.00;95962.94;5026993;28;20415;-70
2021/12/08 10:36:53;;;;;;;12.80;2.88;;;5.40;99.90;;;4.13;100.00;95963.75;5029902;28;20199;-71
2021/12/08 10:39:33;;;;;;;14.38;2.22;;;5.40;99.90;;;4.06;100.00;95977.78;5028342;28;20049;-70
2021/12/08 10:42:23;;;;;;;14.82;3.85;;;5.40;99.90;;;4.06;100.00;95969.22;5020730;28;20080;-70
2021/12/08 10:45:22;;;;;;;15.10;2.95;;;5.40;99.90;;;4.21;100.00;95963.44;5028075;28;20076;-70
2021/12/08 10:47:55;;;;;;;12.10;3.05;;;5.40;99.90;;;4.09;100.00;95961.41;5025530;28;20766;-70
2021/12/08 10:56:19;;;;;;;18.42;2.35;;;5.30;99.90;;;4.02;100.00;95955.69;5026652;28;20076;-69
2021/12/08 10:58:53;;;;;;;10.07;2.05;;;5.30;99.90;;;3.98;100.00;95946.44;5033122;28;20041;-70
2021/12/08 11:01:24;;;;;;;12.30;3.30;;;5.40;99.90;;;4.05;100.00;95947.84;5017643;28;20077;-70
2021/12/08 11:04:01;;;;;;;11.80;2.63;;;5.30;99.90;;;4.15;100.00;95946.56;5015096;28;20128;-70
2021/12/08 11:06:33;;;;;;;15.30;2.65;;;5.30;99.90;;;4.13;100.00;95947.53;5017278;28;20053;-70
2021/12/08 11:09:03;;;;;;;13.60;2.60;;;5.40;99.90;;;4.14;100.00;95944.88;5035550;28;20077;-70
2021/12/08 11:11:33;;;;;;;13.93;2.58;;;5.40;99.90;;;4.21;100.00;95958.28;5018191;28;20172;-70
2021/12/08 11:14:03;;;;;;;14.32;2.83;;;5.40;99.90;;;4.18;100.00;95955.88;5031784;28;20049;-70
2021/12/08 11:16:38;;;;;;;16.58;5.13;;;5.50;99.90;;;4.24;100.00;95962.47;5021479;28;20046;-70
2021/12/08 11:19:20;;;;;;;21.98;3.22;;;5.50;99.90;;;4.17;100.00;95965.31;5025665;28;20087;-70
2021/12/08 11:21:54;;;;;;;14.25;3.20;;;5.50;99.90;;;4.21;100.00;95960.84;5020545;28;20054;-70
2021/12/08 11:24:33;;;;;;;9.13;2.08;;;5.50;99.90;;;4.23;100.00;95960.81;5020055;28;20091;-70
2021/12/08 11:27:06;;;;;;;11.18;3.05;;;5.60;99.90;;;4.14;100.00;95954.31;5020723;28;20128;-70
2021/12/08 11:29:42;;;;;;;16.30;3.72;;;5.60;99.90;;;4.32;100.00;95968.09;5025021;28;20211;-71
2021/12/08 11:32:15;;;;;;;10.45;2.13;;;5.50;99.90;;;4.17;100.00;95956.75;5023444;28;20418;-71
2021/12/08 11:34:47;;;;;;;11.82;1.77;;;5.50;99.90;;;4.19;100.00;95960.91;5024049;28;20059;-70
2021/12/08 11:37:26;;;;;;;12.77;1.30;;;5.60;99.90;;;4.12;100.00;95962.09;5013323;28;20205;-71